createdAt,value
2023-03-19T00:01:06.701Z,100253.57
2023-03-19T00:03:44.281Z,100247.55
2023-03-19T00:06:23.009Z,100247.60
2023-03-19T00:08:50.665Z,100241.43
2023-03-19T00:11:17.955Z,100245.59
2023-03-19T00:13:54.662Z,100243.58
2023-03-19T00:16:22.172Z,100244.45
2023-03-19T00:18:49.531Z,100238.63
2023-03-19T00:21:20.853Z,100241.59
2023-03-19T00:23:48.414Z,100236.42
2023-03-19T00:26:16.248Z,100233.70
2023-03-19T00:28:44.286Z,100233.02
2023-03-19T00:31:14.439Z,100232.54
2023-03-19T00:33:41.831Z,100234.29
2023-03-19T00:36:30.440Z,100240.02
2023-03-19T00:39:00.523Z,100234.52
2023-03-19T00:41:29.186Z,100237.51
2023-03-19T00:44:08.175Z,100238.73
2023-03-19T00:46:40.281Z,100240.64
2023-03-19T00:49:18.897Z,100236.38
2023-03-19T00:51:47.832Z,100234.01
2023-03-19T00:54:16.066Z,100232.15
2023-03-19T00:56:45.985Z,100230.63
2023-03-19T00:59:16.155Z,100233.42
2023-03-19T01:01:44.324Z,100233.61
2023-03-19T01:04:13.372Z,100232.63
2023-03-19T01:06:41.011Z,100236.11
2023-03-19T01:09:17.442Z,100235.12
2023-03-19T01:11:44.957Z,100238.95
2023-03-19T01:14:12.726Z,100239.16
2023-03-19T01:16:40.046Z,100233.14
2023-03-19T01:19:07.330Z,100235.74
2023-03-19T01:21:36.638Z,100234.40
2023-03-19T01:24:04.187Z,100234.79
2023-03-19T01:26:51.511Z,100240.33
2023-03-19T01:29:32.343Z,100244.69
2023-03-19T01:32:07.628Z,100249.02
2023-03-19T01:34:42.611Z,100251.98
2023-03-19T01:37:12.819Z,100249.77
2023-03-19T01:39:41.362Z,100252.75
2023-03-19T01:42:18.198Z,100254.34
2023-03-19T01:45:20.614Z,100253.67
2023-03-19T01:48:08.558Z,100252.66
2023-03-19T01:50:54.005Z,100246.48
2023-03-19T01:53:41.563Z,100247.38
2023-03-19T01:56:30.114Z,100245.35
2023-03-19T01:59:08.251Z,100246.60
2023-03-19T02:02:02.601Z,100249.05
2023-03-19T02:04:31.910Z,100242.34
2023-03-19T02:07:09.728Z,100248.05
2023-03-19T02:09:38.138Z,100246.19
2023-03-19T02:12:06.134Z,100241.55
2023-03-19T02:14:33.936Z,100244.52
2023-03-19T02:17:12.396Z,100237.14
2023-03-19T02:19:48.550Z,100238.70
2023-03-19T02:22:17.918Z,100234.08
2023-03-19T02:24:52.990Z,100234.44
2023-03-19T02:27:21.972Z,100228.77
2023-03-19T02:29:51.787Z,100229.84
2023-03-19T02:32:20.284Z,100229.86
2023-03-19T02:34:48.037Z,100232.46
2023-03-19T02:37:20.078Z,100233.52
2023-03-19T02:39:55.210Z,100240.41
2023-03-19T02:42:27.585Z,100241.80
2023-03-19T02:44:54.931Z,100244.38
2023-03-19T02:47:22.386Z,100242.13
2023-03-19T02:49:49.960Z,100240.77
2023-03-19T02:52:17.750Z,100250.25
2023-03-19T02:54:46.983Z,100243.90
2023-03-19T02:57:14.178Z,100245.11
2023-03-19T02:59:41.523Z,100246.69
2023-03-19T03:02:10.280Z,100247.05
2023-03-19T03:04:38.449Z,100253.60
2023-03-19T03:07:06.360Z,100254.65
2023-03-19T03:09:33.487Z,100251.92
2023-03-19T03:12:01.127Z,100252.44
2023-03-19T03:14:28.773Z,100249.50
2023-03-19T03:16:57.472Z,100244.68
2023-03-19T03:19:25.081Z,100248.48
2023-03-19T03:21:52.845Z,100251.41
2023-03-19T03:24:19.992Z,100248.67
2023-03-19T03:26:47.151Z,100250.23
2023-03-19T03:29:15.773Z,100248.51
2023-03-19T03:31:42.970Z,100246.96
2023-03-19T03:34:10.331Z,100244.73
2023-03-19T03:36:38.104Z,100247.14
2023-03-19T03:39:05.490Z,100239.23
2023-03-19T03:41:33.300Z,100234.60
2023-03-19T03:44:00.850Z,100237.86
2023-03-19T03:46:28.748Z,100237.86
2023-03-19T03:48:56.522Z,100242.34
2023-03-19T03:51:27.048Z,100236.66
2023-03-19T03:53:54.275Z,100233.39
2023-03-19T03:56:21.549Z,100233.39
2023-03-19T03:58:48.824Z,100235.81
2023-03-19T04:01:17.553Z,100230.66
2023-03-19T04:03:45.973Z,100237.38
2023-03-19T04:06:17.039Z,100238.27
2023-03-19T04:08:44.893Z,100230.86
2023-03-19T04:11:12.675Z,100224.66
2023-03-19T04:13:39.896Z,100227.94
2023-03-19T04:16:08.201Z,100227.09
2023-03-19T04:18:36.143Z,100229.68
2023-03-19T04:21:03.696Z,100228.85
2023-03-19T04:23:31.165Z,100225.42
2023-03-19T04:26:03.259Z,100226.46
2023-03-19T04:28:31.360Z,100218.06
2023-03-19T04:31:03.679Z,100218.77
2023-03-19T04:33:32.371Z,100219.46
2023-03-19T04:36:00.695Z,100218.27
2023-03-19T04:38:29.151Z,100217.73
2023-03-19T04:41:00.105Z,100218.77
2023-03-19T04:43:28.745Z,100221.20
2023-03-19T04:45:55.897Z,100221.56
2023-03-19T04:48:23.274Z,100219.69
2023-03-19T04:50:53.434Z,100217.11
2023-03-19T04:53:21.855Z,100219.53
2023-03-19T04:55:49.611Z,100218.69
2023-03-19T04:58:18.297Z,100221.09
2023-03-19T05:00:48.568Z,100222.28
2023-03-19T05:03:18.962Z,100223.81
2023-03-19T05:05:46.529Z,100230.85
2023-03-19T05:08:14.068Z,100228.77
2023-03-19T05:10:41.733Z,100231.67
2023-03-19T05:13:09.544Z,100234.94
2023-03-19T05:15:42.794Z,100238.20
2023-03-19T05:18:10.881Z,100241.44
2023-03-19T05:20:40.518Z,100244.83
2023-03-19T05:23:11.917Z,100243.91
2023-03-19T05:25:46.463Z,100246.34
2023-03-19T05:28:16.556Z,100244.64
2023-03-19T05:30:44.452Z,100247.70
2023-03-19T05:33:18.865Z,100241.27
2023-03-19T05:35:49.921Z,100234.80
2023-03-19T05:38:22.363Z,100230.15
2023-03-19T05:40:55.666Z,100225.76
2023-03-19T05:43:33.670Z,100230.00
2023-03-19T05:46:01.793Z,100227.54
2023-03-19T05:48:30.625Z,100219.30
2023-03-19T05:50:59.751Z,100213.88
2023-03-19T05:53:32.198Z,100213.18
2023-03-19T05:56:18.185Z,100209.52
2023-03-19T05:59:11.561Z,100208.39
2023-03-19T06:01:40.818Z,100209.54
2023-03-19T06:04:08.487Z,100208.13
2023-03-19T06:06:36.586Z,100205.95
2023-03-19T06:09:03.743Z,100206.52
2023-03-19T06:11:36.878Z,100202.16
2023-03-19T06:14:24.467Z,100200.79
2023-03-19T06:17:09.487Z,100204.68
2023-03-19T06:19:37.205Z,100199.08
2023-03-19T06:22:06.118Z,100202.06
2023-03-19T06:24:33.901Z,100206.48
2023-03-19T06:27:01.600Z,100214.33
2023-03-19T06:29:29.339Z,100214.20
2023-03-19T06:32:00.795Z,100210.35
2023-03-19T06:34:39.979Z,100209.98
2023-03-19T06:37:07.612Z,100211.02
2023-03-19T06:39:35.135Z,100208.27
2023-03-19T06:42:02.362Z,100207.85
2023-03-19T06:44:30.087Z,100208.75
2023-03-19T06:46:57.319Z,100206.56
2023-03-19T06:49:25.065Z,100207.98
2023-03-19T06:51:52.366Z,100215.44
2023-03-19T06:54:19.503Z,100210.27
2023-03-19T06:56:47.352Z,100208.70
2023-03-19T06:59:14.525Z,100206.40
2023-03-19T07:01:42.267Z,100206.33
2023-03-19T07:04:09.556Z,100209.16
2023-03-19T07:06:36.972Z,100217.05
2023-03-19T07:09:04.378Z,100218.04
2023-03-19T07:11:33.204Z,100222.95
2023-03-19T07:14:02.395Z,100218.53
2023-03-19T07:16:29.662Z,100220.83
2023-03-19T07:18:57.060Z,100225.93
2023-03-19T07:21:24.826Z,100230.59
2023-03-19T07:23:52.196Z,100232.71
2023-03-19T07:26:19.611Z,100229.45
2023-03-19T07:28:48.591Z,100227.83
2023-03-19T07:31:17.161Z,100227.53
2023-03-19T07:33:44.330Z,100230.21
2023-03-19T07:36:13.891Z,100224.50
2023-03-19T07:38:41.127Z,100221.48
2023-03-19T07:41:08.484Z,100218.70
2023-03-19T07:43:36.077Z,100222.44
2023-03-19T07:46:06.384Z,100222.49
2023-03-19T07:48:33.740Z,100225.81
2023-03-19T07:51:01.243Z,100223.69
2023-03-19T07:53:28.434Z,100219.95
2023-03-19T07:55:55.607Z,100224.91
2023-03-19T07:58:23.106Z,100219.87
2023-03-19T08:00:50.765Z,100215.15
2023-03-19T08:03:18.151Z,100212.91
2023-03-19T08:05:45.465Z,100212.71
2023-03-19T08:08:13.678Z,100206.65
2023-03-19T08:10:41.511Z,100209.94
2023-03-19T08:13:09.121Z,100207.20
2023-03-19T08:15:36.338Z,100204.64
2023-03-19T08:18:05.321Z,100208.46
2023-03-19T08:20:33.293Z,100208.84
2023-03-19T08:23:01.001Z,100205.55
2023-03-19T08:25:32.405Z,100208.19
2023-03-19T08:27:59.525Z,100210.11
2023-03-19T08:30:26.672Z,100205.27
2023-03-19T08:32:53.971Z,100209.13
2023-03-19T08:35:21.332Z,100205.80
2023-03-19T08:37:48.376Z,100212.33
2023-03-19T08:40:16.538Z,100212.24
2023-03-19T08:42:45.316Z,100212.51
2023-03-19T08:45:15.522Z,100209.02
2023-03-19T08:47:43.168Z,100209.79
2023-03-19T08:50:12.261Z,100211.13
2023-03-19T08:52:39.726Z,100211.34
2023-03-19T08:55:08.544Z,100211.56
2023-03-19T08:57:36.777Z,100212.61
2023-03-19T09:00:05.846Z,100208.36
2023-03-19T09:02:32.986Z,100211.27
2023-03-19T09:05:01.055Z,100215.89
2023-03-19T09:07:28.157Z,100213.36
2023-03-19T09:09:55.431Z,100207.37
2023-03-19T09:12:22.587Z,100212.34
2023-03-19T09:14:49.742Z,100216.60
2023-03-19T09:17:18.513Z,100216.02
2023-03-19T09:19:45.743Z,100213.89
2023-03-19T09:22:12.890Z,100212.73
2023-03-19T09:24:40.733Z,100208.92
2023-03-19T09:27:08.526Z,100211.81
2023-03-19T09:29:35.656Z,100205.71
2023-03-19T09:32:02.837Z,100208.00
2023-03-19T09:34:30.094Z,100202.52
2023-03-19T09:36:57.947Z,100195.39
2023-03-19T09:39:25.187Z,100194.30
2023-03-19T09:42:04.647Z,100190.87
2023-03-19T09:44:35.739Z,100192.05
2023-03-19T09:47:14.166Z,100189.30
2023-03-19T09:49:44.506Z,100188.34
2023-03-19T09:52:22.484Z,100191.30
2023-03-19T09:54:53.575Z,100186.63
2023-03-19T09:57:21.992Z,100185.83
2023-03-19T09:59:49.535Z,100185.77
2023-03-19T10:02:39.127Z,100184.97
2023-03-19T10:05:17.722Z,100186.61
2023-03-19T10:07:59.530Z,100188.83
2023-03-19T10:10:45.923Z,100187.39
2023-03-19T10:13:26.742Z,100191.37
2023-03-19T10:15:55.163Z,100193.86
2023-03-19T10:18:26.524Z,100199.70
2023-03-19T10:20:59.381Z,100196.50
2023-03-19T10:23:41.965Z,100198.58
2023-03-19T10:26:13.654Z,100198.35
2023-03-19T10:28:43.687Z,100195.23
2023-03-19T10:31:27.301Z,100192.34
2023-03-19T10:34:05.001Z,100194.95
2023-03-19T10:36:37.279Z,100198.23
2023-03-19T10:39:07.866Z,100195.58
2023-03-19T10:41:45.225Z,100196.02
2023-03-19T10:44:23.017Z,100197.36
2023-03-19T10:46:50.538Z,100200.23
2023-03-19T10:49:18.351Z,100199.60
2023-03-19T10:51:48.105Z,100199.94
2023-03-19T10:54:25.440Z,100199.00
2023-03-19T10:56:56.137Z,100195.96
2023-03-19T10:59:33.170Z,100194.23
2023-03-19T11:02:03.649Z,100191.45
2023-03-19T11:04:32.570Z,100186.61
2023-03-19T11:07:11.303Z,100184.51
2023-03-19T11:09:40.141Z,100181.81
2023-03-19T11:12:18.454Z,100180.88
2023-03-19T11:14:48.576Z,100176.44
2023-03-19T11:17:25.960Z,100169.73
2023-03-19T11:19:55.742Z,100165.16
2023-03-19T11:22:25.117Z,100157.50
2023-03-19T11:25:01.940Z,100158.80
2023-03-19T11:27:32.072Z,100156.63
2023-03-19T11:29:59.625Z,100147.07
2023-03-19T11:33:01.128Z,100141.71
2023-03-19T11:35:31.473Z,100139.92
2023-03-19T11:38:01.129Z,100133.67
2023-03-19T11:40:38.824Z,100129.48
2023-03-19T11:43:40.364Z,100122.02
2023-03-19T11:46:15.945Z,100120.30
2023-03-19T11:49:01.668Z,100122.39
2023-03-19T11:51:34.136Z,100125.08
2023-03-19T11:54:12.539Z,100121.80
2023-03-19T11:56:47.412Z,100115.36
2023-03-19T11:59:27.952Z,100116.65
2023-03-19T12:02:19.380Z,100119.38
2023-03-19T12:04:59.845Z,100113.46
2023-03-19T12:07:34.525Z,100122.33
2023-03-19T12:10:17.950Z,100125.66
2023-03-19T12:12:51.266Z,100126.19
2023-03-19T12:15:28.203Z,100122.02
2023-03-19T12:18:07.428Z,100118.92
2023-03-19T12:20:51.806Z,100122.82
2023-03-19T12:23:35.925Z,100123.09
2023-03-19T12:26:09.018Z,100118.89
2023-03-19T12:28:45.862Z,100120.40
2023-03-19T12:31:45.513Z,100114.84
2023-03-19T12:34:25.023Z,100116.56
2023-03-19T12:36:57.493Z,100115.27
2023-03-19T12:39:31.473Z,100109.63
2023-03-19T12:42:02.990Z,100104.59
2023-03-19T12:44:35.780Z,100113.64
2023-03-19T12:47:08.254Z,100121.46
2023-03-19T12:49:42.484Z,100118.11
2023-03-19T12:52:21.465Z,100104.92
2023-03-19T12:54:52.972Z,100103.14
2023-03-19T12:57:24.467Z,100100.25
2023-03-19T13:00:00.746Z,100096.98
2023-03-19T13:02:36.800Z,100093.94
2023-03-19T13:05:10.336Z,100089.41
2023-03-19T13:07:48.918Z,100091.98
2023-03-19T13:10:21.818Z,100092.87
2023-03-19T13:12:51.688Z,100091.70
2023-03-19T13:15:25.292Z,100085.36
2023-03-19T13:18:04.417Z,100084.84
2023-03-19T13:20:46.878Z,100081.75
2023-03-19T13:23:21.818Z,100077.85
2023-03-19T13:26:00.359Z,100082.52
2023-03-19T13:28:31.876Z,100083.52
2023-03-19T13:31:07.993Z,100079.25
2023-03-19T13:33:37.636Z,100079.52
2023-03-19T13:36:09.170Z,100075.23
2023-03-19T13:38:42.678Z,100077.48
2023-03-19T13:41:47.361Z,100073.70
2023-03-19T13:44:33.689Z,100069.23
2023-03-19T13:47:04.529Z,100067.89
2023-03-19T13:49:36.766Z,100075.48
2023-03-19T13:52:30.162Z,100071.33
2023-03-19T13:55:19.001Z,100068.63
2023-03-19T13:58:12.424Z,100075.17
2023-03-19T14:01:10.592Z,100071.33
2023-03-19T14:03:41.374Z,100071.91
2023-03-19T14:06:34.940Z,100077.63
2023-03-19T14:09:03.079Z,100066.25
2023-03-19T14:11:33.676Z,100071.40
2023-03-19T14:14:06.172Z,100065.89
2023-03-19T14:16:35.456Z,100069.59
2023-03-19T14:19:05.385Z,100073.98
2023-03-19T14:21:46.614Z,100071.01
2023-03-19T14:24:55.902Z,100073.27
2023-03-19T14:27:29.603Z,100067.91
2023-03-19T14:30:12.499Z,100061.75
2023-03-19T14:32:43.949Z,100064.45
2023-03-19T14:35:20.412Z,100063.36
2023-03-19T14:37:52.451Z,100062.01
2023-03-19T14:40:26.025Z,100064.46
2023-03-19T14:43:04.816Z,100066.83
2023-03-19T14:45:56.294Z,100067.54
2023-03-19T14:49:13.431Z,100064.45
2023-03-19T14:52:01.207Z,100066.88
2023-03-19T14:54:37.193Z,100074.88
2023-03-19T14:57:17.320Z,100077.69
2023-03-19T14:59:44.733Z,100074.02
2023-03-19T15:02:24.050Z,100064.63
2023-03-19T15:04:52.407Z,100057.03
2023-03-19T15:07:25.247Z,100058.42
2023-03-19T15:09:58.765Z,100058.02
2023-03-19T15:13:09.939Z,100062.19
2023-03-19T15:15:49.910Z,100059.60
2023-03-19T15:18:20.896Z,100055.89
2023-03-19T15:20:54.777Z,100055.52
2023-03-19T15:23:27.175Z,100058.02
2023-03-19T15:25:58.241Z,100055.97
2023-03-19T15:28:28.184Z,100053.48
2023-03-19T15:31:26.776Z,100053.13
2023-03-19T15:33:53.538Z,100051.73
2023-03-19T15:36:26.586Z,100048.18
2023-03-19T15:38:58.657Z,100047.45
2023-03-19T15:41:29.036Z,100050.80
2023-03-19T15:43:57.577Z,100051.23
2023-03-19T15:46:28.450Z,100054.98
2023-03-19T15:49:00.010Z,100058.19
2023-03-19T15:51:29.416Z,100057.58
2023-03-19T15:53:57.483Z,100059.62
2023-03-19T15:56:25.119Z,100062.83
2023-03-19T15:58:54.140Z,100060.30
2023-03-19T16:01:22.128Z,100057.16
2023-03-19T16:03:56.723Z,100059.50
2023-03-19T16:06:27.606Z,100064.54
2023-03-19T16:08:57.019Z,100070.95
2023-03-19T16:11:34.892Z,100069.88
2023-03-19T16:14:03.604Z,100069.98
2023-03-19T16:16:34.195Z,100069.62
2023-03-19T16:19:02.239Z,100073.07
2023-03-19T16:21:36.256Z,100076.27
2023-03-19T16:24:14.940Z,100081.52
2023-03-19T16:26:43.606Z,100080.13
2023-03-19T16:29:24.107Z,100086.63
2023-03-19T16:31:54.706Z,100084.70
2023-03-19T16:34:46.729Z,100084.17
2023-03-19T16:37:35.548Z,100079.09
2023-03-19T16:40:05.296Z,100078.98
2023-03-19T16:42:42.432Z,100086.19
2023-03-19T16:45:26.632Z,100091.31
2023-03-19T16:47:55.612Z,100095.20
2023-03-19T16:50:29.630Z,100099.05
2023-03-19T16:52:57.396Z,100100.18
2023-03-19T16:55:27.484Z,100102.83
2023-03-19T16:57:59.330Z,100103.20
2023-03-19T17:00:30.704Z,100106.42
2023-03-19T17:02:59.070Z,100104.97
2023-03-19T17:05:28.251Z,100102.71
2023-03-19T17:07:56.481Z,100107.64
2023-03-19T17:10:25.762Z,100109.23
2023-03-19T17:12:56.321Z,100111.15
2023-03-19T17:15:28.459Z,100112.02
2023-03-19T17:17:55.991Z,100112.53
2023-03-19T17:20:29.381Z,100118.09
2023-03-19T17:22:56.524Z,100112.53
2023-03-19T17:25:25.044Z,100113.40
2023-03-19T17:27:52.402Z,100110.70
2023-03-19T17:30:20.320Z,100112.02
2023-03-19T17:32:51.812Z,100113.17
2023-03-19T17:35:21.529Z,100114.30
2023-03-19T17:37:50.022Z,100116.17
2023-03-19T17:40:27.137Z,100117.52
2023-03-19T17:42:55.058Z,100115.17
2023-03-19T17:45:27.756Z,100115.06
2023-03-19T17:47:57.932Z,100112.88
2023-03-19T17:50:27.741Z,100112.14
2023-03-19T17:52:55.702Z,100109.52
2023-03-19T17:55:25.312Z,100106.33
2023-03-19T17:57:53.311Z,100106.77
2023-03-19T18:00:22.884Z,100105.13
2023-03-19T18:02:52.220Z,100103.13
2023-03-19T18:05:21.896Z,100105.13
2023-03-19T18:07:50.582Z,100104.19
2023-03-19T18:10:21.135Z,100105.23
2023-03-19T18:12:49.503Z,100102.17
2023-03-19T18:15:17.982Z,100100.45
2023-03-19T18:17:50.303Z,100095.98
2023-03-19T18:20:18.935Z,100090.84
2023-03-19T18:22:55.468Z,100091.41
2023-03-19T18:25:25.827Z,100091.29
2023-03-19T18:28:13.293Z,100089.08
2023-03-19T18:30:43.009Z,100092.08
2023-03-19T18:33:16.985Z,100096.02
2023-03-19T18:35:46.409Z,100097.85
2023-03-19T18:38:20.035Z,100096.48
2023-03-19T18:40:47.451Z,100095.17
2023-03-19T18:43:17.845Z,100097.47
2023-03-19T18:45:46.952Z,100097.02
2023-03-19T18:48:23.219Z,100096.19
2023-03-19T18:50:50.828Z,100095.20
2023-03-19T18:53:18.697Z,100094.55
2023-03-19T18:55:53.802Z,100094.93
2023-03-19T18:58:24.153Z,100096.61
2023-03-19T19:00:52.446Z,100097.88
2023-03-19T19:03:21.619Z,100092.20
2023-03-19T19:05:49.748Z,100095.74
2023-03-19T19:08:20.361Z,100094.61
2023-03-19T19:10:51.859Z,100096.03
2023-03-19T19:13:23.491Z,100098.85
2023-03-19T19:15:52.884Z,100095.43
2023-03-19T19:18:23.152Z,100095.98
2023-03-19T19:20:52.473Z,100101.98
2023-03-19T19:23:20.548Z,100097.52
2023-03-19T19:25:51.056Z,100098.78
2023-03-19T19:28:26.943Z,100095.52
2023-03-19T19:30:55.029Z,100097.16
2023-03-19T19:33:25.430Z,100099.02
2023-03-19T19:35:53.284Z,100094.60
2023-03-19T19:38:20.633Z,100098.01
2023-03-19T19:40:51.024Z,100102.02
2023-03-19T19:43:21.114Z,100100.33
2023-03-19T19:45:50.393Z,100097.04
2023-03-19T19:48:21.010Z,100097.38
2023-03-19T19:50:51.157Z,100097.83
2023-03-19T19:53:18.937Z,100097.99
2023-03-19T19:55:47.026Z,100095.22
2023-03-19T19:58:21.393Z,100098.34
2023-03-19T20:01:02.409Z,100099.55
2023-03-19T20:03:32.629Z,100099.52
2023-03-19T20:06:01.578Z,100101.57
2023-03-19T20:08:28.997Z,100100.11
2023-03-19T20:10:57.326Z,100097.60
2023-03-19T20:13:27.759Z,100103.11
2023-03-19T20:15:57.236Z,100100.45
2023-03-19T20:18:29.770Z,100099.48
2023-03-19T20:20:58.267Z,100096.48
2023-03-19T20:23:26.989Z,100095.57
2023-03-19T20:25:55.181Z,100094.49
2023-03-19T20:28:25.495Z,100097.09
2023-03-19T20:30:54.908Z,100099.84
2023-03-19T20:33:25.940Z,100098.14
2023-03-19T20:35:53.569Z,100101.11
2023-03-19T20:38:20.937Z,100095.02
2023-03-19T20:40:51.282Z,100096.58
2023-03-19T20:43:28.332Z,100093.31
2023-03-19T20:45:56.867Z,100093.68
2023-03-19T20:48:24.299Z,100093.84
2023-03-19T20:50:52.364Z,100091.02
2023-03-19T20:53:19.753Z,100087.55
2023-03-19T20:55:56.653Z,100088.98
2023-03-19T20:58:28.119Z,100088.82
2023-03-19T21:00:56.530Z,100086.92
2023-03-19T21:03:34.072Z,100087.61
2023-03-19T21:06:06.831Z,100083.44
2023-03-19T21:08:37.329Z,100083.77
2023-03-19T21:11:32.963Z,100083.53
2023-03-19T21:14:00.347Z,100085.58
2023-03-19T21:16:30.770Z,100086.72
2023-03-19T21:18:59.089Z,100087.51
2023-03-19T21:21:32.049Z,100091.07
2023-03-19T21:24:02.650Z,100092.75
2023-03-19T21:26:30.286Z,100092.17
2023-03-19T21:29:04.125Z,100095.88
2023-03-19T21:31:34.468Z,100091.65
2023-03-19T21:34:02.088Z,100091.95
2023-03-19T21:36:29.912Z,100088.92
2023-03-19T21:38:58.975Z,100087.45
2023-03-19T21:41:30.284Z,100085.80
2023-03-19T21:44:00.986Z,100081.70
2023-03-19T21:46:30.870Z,100078.48
2023-03-19T21:49:13.805Z,100076.65
2023-03-19T21:51:42.780Z,100075.91
2023-03-19T21:54:10.109Z,100076.91
2023-03-19T21:56:41.821Z,100075.98
2023-03-19T21:59:15.198Z,100076.43
2023-03-19T22:01:42.591Z,100075.10
2023-03-19T22:04:09.840Z,100069.64
2023-03-19T22:06:37.735Z,100067.77
2023-03-19T22:09:05.682Z,100067.14
2023-03-19T22:11:36.535Z,100068.59
2023-03-19T22:14:07.818Z,100067.44
2023-03-19T22:16:38.623Z,100067.52
2023-03-19T22:19:12.520Z,100069.48
2023-03-19T22:21:39.650Z,100072.48
2023-03-19T22:24:11.260Z,100070.81
2023-03-19T22:26:43.404Z,100076.20
2023-03-19T22:29:25.528Z,100073.34
2023-03-19T22:32:18.388Z,100069.27
2023-03-19T22:34:46.151Z,100065.36
2023-03-19T22:37:27.444Z,100067.14
2023-03-19T22:39:58.267Z,100064.34
2023-03-19T22:42:33.408Z,100061.98
2023-03-19T22:45:01.070Z,100061.61
2023-03-19T22:47:49.074Z,100062.67
2023-03-19T22:50:28.575Z,100059.16
2023-03-19T22:52:57.248Z,100057.85
2023-03-19T22:55:37.050Z,100057.80
2023-03-19T22:58:04.454Z,100062.60
2023-03-19T23:00:32.102Z,100058.66
2023-03-19T23:03:00.995Z,100060.15
2023-03-19T23:05:36.303Z,100067.23
2023-03-19T23:08:06.168Z,100066.82
2023-03-19T23:10:36.065Z,100070.08
2023-03-19T23:13:03.244Z,100070.20
2023-03-19T23:15:33.032Z,100065.31
2023-03-19T23:18:02.382Z,100069.44
2023-03-19T23:20:33.946Z,100070.58
2023-03-19T23:23:02.323Z,100065.41
2023-03-19T23:25:31.558Z,100062.58
2023-03-19T23:28:02.536Z,100061.44
2023-03-19T23:30:32.378Z,100055.98
2023-03-19T23:33:01.316Z,100053.79
2023-03-19T23:35:30.224Z,100057.11
2023-03-19T23:37:58.180Z,100051.77
2023-03-19T23:40:28.239Z,100052.64
2023-03-19T23:42:56.710Z,100049.88
2023-03-19T23:45:35.450Z,100048.71
2023-03-19T23:48:06.216Z,100046.33
2023-03-19T23:50:33.982Z,100042.95
2023-03-19T23:53:01.849Z,100049.23
2023-03-19T23:55:30.126Z,100045.96
2023-03-19T23:57:58.354Z,100041.48
